sensor_id;sensor_type;location;lat;lon;timestamp;P1;durP1;ratioP1;P2;durP2;ratioP2
6983;SDS011;3532;51.118;7.210;2022-08-01T00:02:20;7.43;;;6.83;;
6983;SDS011;3532;51.118;7.210;2022-08-01T00:04:46;7.77;;;6.97;;
6983;SDS011;3532;51.118;7.210;2022-08-01T00:07:11;9.40;;;7.53;;
6983;SDS011;3532;51.118;7.210;2022-08-01T00:09:36;7.23;;;6.60;;
6983;SDS011;3532;51.118;7.210;2022-08-01T00:12:02;9.30;;;7.53;;
6983;SDS011;3532;51.118;7.210;2022-08-01T00:14:27;7.50;;;6.87;;
6983;SDS011;3532;51.118;7.210;2022-08-01T00:16:53;8.63;;;7.73;;
6983;SDS011;3532;51.118;7.210;2022-08-01T00:19:19;8.87;;;6.93;;
6983;SDS011;3532;51.118;7.210;2022-08-01T00:21:44;8.57;;;7.53;;
6983;SDS011;3532;51.118;7.210;2022-08-01T00:24:09;10.40;;;7.17;;
6983;SDS011;3532;51.118;7.210;2022-08-01T00:26:35;7.20;;;6.33;;
6983;SDS011;3532;51.118;7.210;2022-08-01T00:29:00;6.60;;;6.03;;
6983;SDS011;3532;51.118;7.210;2022-08-01T00:31:25;6.90;;;5.77;;
6983;SDS011;3532;51.118;7.210;2022-08-01T00:33:51;5.80;;;5.30;;
6983;SDS011;3532;51.118;7.210;2022-08-01T00:36:16;6.17;;;5.57;;
6983;SDS011;3532;51.118;7.210;2022-08-01T00:38:41;5.80;;;5.20;;
6983;SDS011;3532;51.118;7.210;2022-08-01T00:41:06;7.30;;;5.17;;
6983;SDS011;3532;51.118;7.210;2022-08-01T00:43:32;6.90;;;5.97;;
6983;SDS011;3532;51.118;7.210;2022-08-01T00:45:57;7.33;;;5.60;;
6983;SDS011;3532;51.118;7.210;2022-08-01T00:48:22;5.53;;;5.10;;
6983;SDS011;3532;51.118;7.210;2022-08-01T00:50:48;6.47;;;5.70;;
6983;SDS011;3532;51.118;7.210;2022-08-01T00:53:13;7.23;;;6.50;;
6983;SDS011;3532;51.118;7.210;2022-08-01T00:55:39;7.67;;;6.07;;
6983;SDS011;3532;51.118;7.210;2022-08-01T00:58:04;5.97;;;5.47;;
6983;SDS011;3532;51.118;7.210;2022-08-01T01:00:30;7.17;;;6.07;;
6983;SDS011;3532;51.118;7.210;2022-08-01T01:02:55;6.50;;;5.90;;
6983;SDS011;3532;51.118;7.210;2022-08-01T01:05:21;8.00;;;5.93;;
6983;SDS011;3532;51.118;7.210;2022-08-01T01:10:46;7.87;;;6.00;;
6983;SDS011;3532;51.118;7.210;2022-08-01T01:13:18;7.47;;;5.80;;
6983;SDS011;3532;51.118;7.210;2022-08-01T01:15:55;6.10;;;5.47;;
6983;SDS011;3532;51.118;7.210;2022-08-01T01:18:25;8.47;;;6.07;;
6983;SDS011;3532;51.118;7.210;2022-08-01T01:28:53;7.23;;;6.40;;
6983;SDS011;3532;51.118;7.210;2022-08-01T01:31:22;6.77;;;6.23;;
6983;SDS011;3532;51.118;7.210;2022-08-01T01:33:49;7.83;;;6.07;;
6983;SDS011;3532;51.118;7.210;2022-08-01T01:36:15;8.23;;;7.10;;
6983;SDS011;3532;51.118;7.210;2022-08-01T01:38:43;8.30;;;7.23;;
6983;SDS011;3532;51.118;7.210;2022-08-01T01:41:09;7.90;;;7.20;;
6983;SDS011;3532;51.118;7.210;2022-08-01T01:43:36;8.77;;;7.97;;
6983;SDS011;3532;51.118;7.210;2022-08-01T01:46:02;9.17;;;8.27;;
6983;SDS011;3532;51.118;7.210;2022-08-01T01:48:28;10.50;;;9.17;;
6983;SDS011;3532;51.118;7.210;2022-08-01T01:50:54;9.40;;;7.73;;
6983;SDS011;3532;51.118;7.210;2022-08-01T01:53:21;10.60;;;9.43;;
6983;SDS011;3532;51.118;7.210;2022-08-01T01:55:49;10.80;;;9.70;;
6983;SDS011;3532;51.118;7.210;2022-08-01T01:58:17;11.07;;;10.13;;
6983;SDS011;3532;51.118;7.210;2022-08-01T02:00:43;12.57;;;10.60;;
6983;SDS011;3532;51.118;7.210;2022-08-01T02:03:10;12.23;;;11.20;;
6983;SDS011;3532;51.118;7.210;2022-08-01T02:05:36;10.87;;;9.97;;
6983;SDS011;3532;51.118;7.210;2022-08-01T02:08:02;11.93;;;10.83;;
6983;SDS011;3532;51.118;7.210;2022-08-01T02:10:29;11.80;;;10.80;;
6983;SDS011;3532;51.118;7.210;2022-08-01T02:12:56;12.57;;;10.57;;
6983;SDS011;3532;51.118;7.210;2022-08-01T02:15:22;12.93;;;11.03;;
6983;SDS011;3532;51.118;7.210;2022-08-01T02:17:49;12.63;;;11.33;;
6983;SDS011;3532;51.118;7.210;2022-08-01T02:20:15;13.33;;;11.10;;
6983;SDS011;3532;51.118;7.210;2022-08-01T02:22:46;15.57;;;12.83;;
6983;SDS011;3532;51.118;7.210;2022-08-01T02:25:15;13.80;;;12.17;;
6983;SDS011;3532;51.118;7.210;2022-08-01T02:30:21;13.70;;;11.97;;
6983;SDS011;3532;51.118;7.210;2022-08-01T02:32:49;19.03;;;12.33;;
6983;SDS011;3532;51.118;7.210;2022-08-01T02:35:24;12.13;;;10.83;;
6983;SDS011;3532;51.118;7.210;2022-08-01T02:37:52;17.60;;;13.00;;
6983;SDS011;3532;51.118;7.210;2022-08-01T02:40:18;14.27;;;12.63;;
6983;SDS011;3532;51.118;7.210;2022-08-01T02:42:47;16.37;;;14.40;;
6983;SDS011;3532;51.118;7.210;2022-08-01T02:45:16;15.73;;;14.13;;
6983;SDS011;3532;51.118;7.210;2022-08-01T02:47:43;14.60;;;13.20;;
6983;SDS011;3532;51.118;7.210;2022-08-01T02:50:09;18.90;;;15.43;;
6983;SDS011;3532;51.118;7.210;2022-08-01T02:52:36;16.87;;;14.77;;
6983;SDS011;3532;51.118;7.210;2022-08-01T02:55:02;16.47;;;14.20;;
6983;SDS011;3532;51.118;7.210;2022-08-01T02:57:28;18.00;;;16.10;;
6983;SDS011;3532;51.118;7.210;2022-08-01T02:59:54;16.50;;;14.83;;
6983;SDS011;3532;51.118;7.210;2022-08-01T03:02:21;16.40;;;14.77;;
6983;SDS011;3532;51.118;7.210;2022-08-01T03:04:47;17.83;;;15.60;;
6983;SDS011;3532;51.118;7.210;2022-08-01T03:07:14;17.47;;;15.67;;
6983;SDS011;3532;51.118;7.210;2022-08-01T03:09:42;18.00;;;16.13;;
6983;SDS011;3532;51.118;7.210;2022-08-01T03:12:13;18.00;;;16.20;;
6983;SDS011;3532;51.118;7.210;2022-08-01T03:14:40;16.60;;;15.00;;
6983;SDS011;3532;51.118;7.210;2022-08-01T03:17:07;17.97;;;16.27;;
6983;SDS011;3532;51.118;7.210;2022-08-01T03:19:33;16.87;;;15.23;;
6983;SDS011;3532;51.118;7.210;2022-08-01T03:21:59;17.20;;;15.50;;
6983;SDS011;3532;51.118;7.210;2022-08-01T03:24:28;16.47;;;14.87;;
6983;SDS011;3532;51.118;7.210;2022-08-01T03:26:53;16.60;;;14.40;;
6983;SDS011;3532;51.118;7.210;2022-08-01T03:29:22;17.23;;;15.40;;
6983;SDS011;3532;51.118;7.210;2022-08-01T03:31:49;15.93;;;14.43;;
6983;SDS011;3532;51.118;7.210;2022-08-01T03:34:15;15.37;;;13.87;;
6983;SDS011;3532;51.118;7.210;2022-08-01T03:36:49;14.60;;;13.20;;
6983;SDS011;3532;51.118;7.210;2022-08-01T03:39:16;15.73;;;14.33;;
6983;SDS011;3532;51.118;7.210;2022-08-01T03:41:43;14.47;;;12.97;;
6983;SDS011;3532;51.118;7.210;2022-08-01T03:44:14;16.30;;;14.57;;
6983;SDS011;3532;51.118;7.210;2022-08-01T03:46:48;16.77;;;14.23;;
6983;SDS011;3532;51.118;7.210;2022-08-01T03:49:18;14.20;;;12.80;;
6983;SDS011;3532;51.118;7.210;2022-08-01T03:51:47;15.67;;;14.10;;
6983;SDS011;3532;51.118;7.210;2022-08-01T03:54:14;17.67;;;13.93;;
6983;SDS011;3532;51.118;7.210;2022-08-01T03:56:41;16.43;;;14.73;;
6983;SDS011;3532;51.118;7.210;2022-08-01T03:59:07;16.00;;;14.47;;
6983;SDS011;3532;51.118;7.210;2022-08-01T04:01:34;16.30;;;14.30;;
6983;SDS011;3532;51.118;7.210;2022-08-01T04:03:59;14.67;;;13.37;;
6983;SDS011;3532;51.118;7.210;2022-08-01T04:06:25;15.43;;;13.90;;
6983;SDS011;3532;51.118;7.210;2022-08-01T04:08:50;15.97;;;14.37;;
6983;SDS011;3532;51.118;7.210;2022-08-01T04:11:25;15.37;;;13.97;;
6983;SDS011;3532;51.118;7.210;2022-08-01T04:13:52;15.47;;;13.53;;
6983;SDS011;3532;51.118;7.210;2022-08-01T04:16:18;16.23;;;14.20;;
6983;SDS011;3532;51.118;7.210;2022-08-01T04:18:44;15.93;;;14.23;;
6983;SDS011;3532;51.118;7.210;2022-08-01T04:21:09;15.73;;;14.23;;
6983;SDS011;3532;51.118;7.210;2022-08-01T04:23:35;17.40;;;14.17;;
6983;SDS011;3532;51.118;7.210;2022-08-01T04:26:01;14.43;;;13.00;;
6983;SDS011;3532;51.118;7.210;2022-08-01T04:28:29;13.50;;;12.20;;
6983;SDS011;3532;51.118;7.210;2022-08-01T04:30:55;13.73;;;12.37;;
6983;SDS011;3532;51.118;7.210;2022-08-01T04:33:22;16.50;;;13.23;;
6983;SDS011;3532;51.118;7.210;2022-08-01T04:35:47;14.23;;;12.87;;
6983;SDS011;3532;51.118;7.210;2022-08-01T04:38:15;15.67;;;13.27;;
6983;SDS011;3532;51.118;7.210;2022-08-01T04:40:44;24.63;;;12.90;;
6983;SDS011;3532;51.118;7.210;2022-08-01T04:43:10;15.93;;;13.17;;
6983;SDS011;3532;51.118;7.210;2022-08-01T04:45:36;15.43;;;13.83;;
6983;SDS011;3532;51.118;7.210;2022-08-01T04:48:02;13.60;;;12.27;;
6983;SDS011;3532;51.118;7.210;2022-08-01T04:50:31;14.30;;;12.80;;
6983;SDS011;3532;51.118;7.210;2022-08-01T04:52:56;16.70;;;14.97;;
6983;SDS011;3532;51.118;7.210;2022-08-01T04:55:22;21.63;;;15.80;;
6983;SDS011;3532;51.118;7.210;2022-08-01T04:57:47;15.80;;;13.90;;
6983;SDS011;3532;51.118;7.210;2022-08-01T05:00:12;17.60;;;15.17;;
6983;SDS011;3532;51.118;7.210;2022-08-01T05:02:38;18.63;;;15.57;;
6983;SDS011;3532;51.118;7.210;2022-08-01T05:05:04;17.70;;;14.03;;
6983;SDS011;3532;51.118;7.210;2022-08-01T05:07:31;15.47;;;13.80;;
6983;SDS011;3532;51.118;7.210;2022-08-01T05:09:56;17.13;;;15.23;;
6983;SDS011;3532;51.118;7.210;2022-08-01T05:12:22;15.97;;;14.20;;
6983;SDS011;3532;51.118;7.210;2022-08-01T05:14:47;20.00;;;16.33;;
6983;SDS011;3532;51.118;7.210;2022-08-01T05:17:12;19.93;;;15.33;;
6983;SDS011;3532;51.118;7.210;2022-08-01T05:19:38;17.53;;;15.73;;
6983;SDS011;3532;51.118;7.210;2022-08-01T05:22:04;15.67;;;14.07;;
6983;SDS011;3532;51.118;7.210;2022-08-01T05:24:32;15.30;;;13.93;;
6983;SDS011;3532;51.118;7.210;2022-08-01T05:26:58;18.70;;;15.60;;
6983;SDS011;3532;51.118;7.210;2022-08-01T05:29:24;17.07;;;15.27;;
6983;SDS011;3532;51.118;7.210;2022-08-01T05:31:50;16.20;;;14.70;;
6983;SDS011;3532;51.118;7.210;2022-08-01T05:34:16;15.07;;;13.50;;
6983;SDS011;3532;51.118;7.210;2022-08-01T05:36:41;18.80;;;16.33;;
6983;SDS011;3532;51.118;7.210;2022-08-01T05:39:07;18.50;;;16.23;;
6983;SDS011;3532;51.118;7.210;2022-08-01T05:41:32;18.40;;;16.53;;
6983;SDS011;3532;51.118;7.210;2022-08-01T05:43:57;18.30;;;15.57;;
6983;SDS011;3532;51.118;7.210;2022-08-01T05:46:23;19.13;;;17.40;;
6983;SDS011;3532;51.118;7.210;2022-08-01T05:48:48;18.83;;;16.90;;
6983;SDS011;3532;51.118;7.210;2022-08-01T05:51:13;18.90;;;16.37;;
6983;SDS011;3532;51.118;7.210;2022-08-01T05:53:38;20.07;;;17.97;;
6983;SDS011;3532;51.118;7.210;2022-08-01T05:56:04;20.17;;;18.27;;
6983;SDS011;3532;51.118;7.210;2022-08-01T05:58:29;19.97;;;17.83;;
6983;SDS011;3532;51.118;7.210;2022-08-01T06:00:55;20.87;;;18.60;;
6983;SDS011;3532;51.118;7.210;2022-08-01T06:03:20;19.00;;;17.13;;
6983;SDS011;3532;51.118;7.210;2022-08-01T06:05:46;20.47;;;18.33;;
6983;SDS011;3532;51.118;7.210;2022-08-01T06:08:11;18.53;;;16.63;;
6983;SDS011;3532;51.118;7.210;2022-08-01T06:10:37;21.30;;;17.97;;
6983;SDS011;3532;51.118;7.210;2022-08-01T06:13:02;18.73;;;15.93;;
6983;SDS011;3532;51.118;7.210;2022-08-01T06:15:28;19.07;;;17.10;;
6983;SDS011;3532;51.118;7.210;2022-08-01T06:17:54;18.60;;;16.70;;
6983;SDS011;3532;51.118;7.210;2022-08-01T06:20:19;19.63;;;17.73;;
6983;SDS011;3532;51.118;7.210;2022-08-01T06:22:45;19.87;;;17.87;;
6983;SDS011;3532;51.118;7.210;2022-08-01T06:25:10;19.97;;;17.83;;
6983;SDS011;3532;51.118;7.210;2022-08-01T06:27:35;18.87;;;16.83;;
6983;SDS011;3532;51.118;7.210;2022-08-01T06:30:01;15.83;;;14.33;;
6983;SDS011;3532;51.118;7.210;2022-08-01T06:32:26;16.93;;;15.37;;
6983;SDS011;3532;51.118;7.210;2022-08-01T06:34:52;19.17;;;15.83;;
6983;SDS011;3532;51.118;7.210;2022-08-01T06:37:17;17.63;;;15.80;;
6983;SDS011;3532;51.118;7.210;2022-08-01T06:39:42;17.63;;;14.97;;
6983;SDS011;3532;51.118;7.210;2022-08-01T06:42:08;19.17;;;15.03;;
6983;SDS011;3532;51.118;7.210;2022-08-01T06:44:34;18.87;;;16.87;;
6983;SDS011;3532;51.118;7.210;2022-08-01T06:46:59;18.67;;;16.07;;
6983;SDS011;3532;51.118;7.210;2022-08-01T06:49:25;17.63;;;15.83;;
6983;SDS011;3532;51.118;7.210;2022-08-01T06:51:50;18.10;;;16.33;;
6983;SDS011;3532;51.118;7.210;2022-08-01T06:54:15;17.57;;;15.93;;
6983;SDS011;3532;51.118;7.210;2022-08-01T06:56:41;16.87;;;15.20;;
6983;SDS011;3532;51.118;7.210;2022-08-01T06:59:06;14.70;;;13.23;;
6983;SDS011;3532;51.118;7.210;2022-08-01T07:01:32;16.90;;;15.20;;
6983;SDS011;3532;51.118;7.210;2022-08-01T07:03:57;15.57;;;14.07;;
6983;SDS011;3532;51.118;7.210;2022-08-01T07:06:23;16.57;;;14.87;;
6983;SDS011;3532;51.118;7.210;2022-08-01T07:08:49;15.43;;;14.00;;
6983;SDS011;3532;51.118;7.210;2022-08-01T07:11:15;16.10;;;14.50;;
6983;SDS011;3532;51.118;7.210;2022-08-01T07:13:40;15.07;;;13.63;;
6983;SDS011;3532;51.118;7.210;2022-08-01T07:16:06;14.60;;;13.10;;
6983;SDS011;3532;51.118;7.210;2022-08-01T07:18:31;14.43;;;13.03;;
6983;SDS011;3532;51.118;7.210;2022-08-01T07:20:56;14.57;;;13.30;;
6983;SDS011;3532;51.118;7.210;2022-08-01T07:23:22;15.63;;;14.10;;
6983;SDS011;3532;51.118;7.210;2022-08-01T07:25:47;15.37;;;13.83;;
6983;SDS011;3532;51.118;7.210;2022-08-01T07:28:14;15.20;;;12.87;;
6983;SDS011;3532;51.118;7.210;2022-08-01T07:30:39;12.53;;;11.33;;
6983;SDS011;3532;51.118;7.210;2022-08-01T07:33:07;13.97;;;12.57;;
6983;SDS011;3532;51.118;7.210;2022-08-01T07:35:32;13.77;;;12.57;;
6983;SDS011;3532;51.118;7.210;2022-08-01T07:37:58;14.37;;;12.97;;
6983;SDS011;3532;51.118;7.210;2022-08-01T07:40:23;13.50;;;12.30;;
6983;SDS011;3532;51.118;7.210;2022-08-01T07:42:48;14.00;;;12.67;;
6983;SDS011;3532;51.118;7.210;2022-08-01T07:45:14;12.90;;;11.47;;
6983;SDS011;3532;51.118;7.210;2022-08-01T07:47:40;13.10;;;11.37;;
6983;SDS011;3532;51.118;7.210;2022-08-01T07:50:05;12.37;;;11.17;;
6983;SDS011;3532;51.118;7.210;2022-08-01T07:52:32;11.77;;;10.57;;
6983;SDS011;3532;51.118;7.210;2022-08-01T07:54:57;12.13;;;10.80;;
6983;SDS011;3532;51.118;7.210;2022-08-01T07:57:23;10.37;;;9.47;;
6983;SDS011;3532;51.118;7.210;2022-08-01T07:59:49;10.43;;;9.30;;
6983;SDS011;3532;51.118;7.210;2022-08-01T08:02:15;10.87;;;9.37;;
6983;SDS011;3532;51.118;7.210;2022-08-01T08:04:40;12.93;;;11.70;;
6983;SDS011;3532;51.118;7.210;2022-08-01T08:07:06;11.50;;;10.53;;
6983;SDS011;3532;51.118;7.210;2022-08-01T08:09:31;10.93;;;9.93;;
6983;SDS011;3532;51.118;7.210;2022-08-01T08:11:56;9.50;;;8.60;;
6983;SDS011;3532;51.118;7.210;2022-08-01T08:14:21;12.13;;;10.93;;
6983;SDS011;3532;51.118;7.210;2022-08-01T08:16:48;12.20;;;11.10;;
6983;SDS011;3532;51.118;7.210;2022-08-01T08:19:14;13.77;;;12.37;;
6983;SDS011;3532;51.118;7.210;2022-08-01T08:21:39;11.37;;;10.37;;
6983;SDS011;3532;51.118;7.210;2022-08-01T08:24:06;11.17;;;10.17;;
6983;SDS011;3532;51.118;7.210;2022-08-01T08:26:49;10.87;;;9.87;;
6983;SDS011;3532;51.118;7.210;2022-08-01T08:29:16;11.30;;;10.20;;
6983;SDS011;3532;51.118;7.210;2022-08-01T08:31:41;11.13;;;10.03;;
6983;SDS011;3532;51.118;7.210;2022-08-01T08:34:07;10.67;;;9.73;;
6983;SDS011;3532;51.118;7.210;2022-08-01T08:36:32;10.20;;;9.30;;
6983;SDS011;3532;51.118;7.210;2022-08-01T08:38:58;10.10;;;9.10;;
6983;SDS011;3532;51.118;7.210;2022-08-01T08:41:25;10.90;;;9.80;;
6983;SDS011;3532;51.118;7.210;2022-08-01T08:43:50;9.40;;;8.43;;
6983;SDS011;3532;51.118;7.210;2022-08-01T08:46:16;10.67;;;8.70;;
6983;SDS011;3532;51.118;7.210;2022-08-01T08:48:42;7.93;;;7.13;;
6983;SDS011;3532;51.118;7.210;2022-08-01T08:51:07;8.40;;;7.63;;
6983;SDS011;3532;51.118;7.210;2022-08-01T08:53:35;9.20;;;8.40;;
6983;SDS011;3532;51.118;7.210;2022-08-01T08:56:01;8.37;;;7.57;;
6983;SDS011;3532;51.118;7.210;2022-08-01T08:58:27;8.63;;;7.60;;
6983;SDS011;3532;51.118;7.210;2022-08-01T09:00:54;8.60;;;7.80;;
6983;SDS011;3532;51.118;7.210;2022-08-01T09:03:19;7.00;;;6.40;;
6983;SDS011;3532;51.118;7.210;2022-08-01T09:05:45;7.03;;;6.40;;
6983;SDS011;3532;51.118;7.210;2022-08-01T09:08:10;7.53;;;6.83;;
6983;SDS011;3532;51.118;7.210;2022-08-01T09:10:36;7.07;;;6.13;;
6983;SDS011;3532;51.118;7.210;2022-08-01T09:15:38;6.33;;;5.73;;
6983;SDS011;3532;51.118;7.210;2022-08-01T09:21:15;6.20;;;5.60;;
6983;SDS011;3532;51.118;7.210;2022-08-01T09:23:46;7.20;;;6.60;;
6983;SDS011;3532;51.118;7.210;2022-08-01T09:26:13;5.63;;;5.13;;
6983;SDS011;3532;51.118;7.210;2022-08-01T09:28:41;5.67;;;4.80;;
6983;SDS011;3532;51.118;7.210;2022-08-01T09:31:07;5.80;;;5.27;;
6983;SDS011;3532;51.118;7.210;2022-08-01T09:33:46;5.77;;;5.27;;
6983;SDS011;3532;51.118;7.210;2022-08-01T09:36:12;5.80;;;5.20;;
6983;SDS011;3532;51.118;7.210;2022-08-01T09:38:37;5.97;;;5.17;;
6983;SDS011;3532;51.118;7.210;2022-08-01T09:41:02;6.00;;;4.90;;
6983;SDS011;3532;51.118;7.210;2022-08-01T09:43:29;5.77;;;5.27;;
6983;SDS011;3532;51.118;7.210;2022-08-01T09:45:55;7.07;;;5.40;;
6983;SDS011;3532;51.118;7.210;2022-08-01T09:48:21;6.20;;;5.60;;
6983;SDS011;3532;51.118;7.210;2022-08-01T09:50:48;6.27;;;5.77;;
6983;SDS011;3532;51.118;7.210;2022-08-01T09:53:15;5.40;;;5.00;;
6983;SDS011;3532;51.118;7.210;2022-08-01T09:55:41;6.13;;;5.50;;
6983;SDS011;3532;51.118;7.210;2022-08-01T09:58:06;6.27;;;5.67;;
6983;SDS011;3532;51.118;7.210;2022-08-01T10:00:32;5.53;;;5.03;;
6983;SDS011;3532;51.118;7.210;2022-08-01T10:02:59;5.37;;;4.97;;
6983;SDS011;3532;51.118;7.210;2022-08-01T10:05:31;7.87;;;5.67;;
6983;SDS011;3532;51.118;7.210;2022-08-01T10:07:58;5.97;;;5.23;;
6983;SDS011;3532;51.118;7.210;2022-08-01T10:10:26;5.80;;;5.30;;
6983;SDS011;3532;51.118;7.210;2022-08-01T10:12:52;4.80;;;4.40;;
6983;SDS011;3532;51.118;7.210;2022-08-01T10:15:20;5.50;;;4.90;;
6983;SDS011;3532;51.118;7.210;2022-08-01T10:17:46;4.87;;;4.47;;
6983;SDS011;3532;51.118;7.210;2022-08-01T10:20:20;5.07;;;4.63;;
6983;SDS011;3532;51.118;7.210;2022-08-01T10:22:48;4.50;;;4.20;;
6983;SDS011;3532;51.118;7.210;2022-08-01T10:25:14;5.43;;;4.87;;
6983;SDS011;3532;51.118;7.210;2022-08-01T10:27:43;5.30;;;4.80;;
6983;SDS011;3532;51.118;7.210;2022-08-01T10:30:11;4.83;;;4.43;;
6983;SDS011;3532;51.118;7.210;2022-08-01T10:32:37;5.03;;;4.60;;
6983;SDS011;3532;51.118;7.210;2022-08-01T10:35:04;5.80;;;4.13;;
6983;SDS011;3532;51.118;7.210;2022-08-01T10:37:30;4.80;;;4.40;;
6983;SDS011;3532;51.118;7.210;2022-08-01T10:39:55;5.07;;;4.60;;
6983;SDS011;3532;51.118;7.210;2022-08-01T10:42:21;5.87;;;5.27;;
6983;SDS011;3532;51.118;7.210;2022-08-01T10:44:47;4.43;;;4.13;;
6983;SDS011;3532;51.118;7.210;2022-08-01T10:47:18;4.90;;;4.50;;
6983;SDS011;3532;51.118;7.210;2022-08-01T10:52:19;5.87;;;5.37;;
6983;SDS011;3532;51.118;7.210;2022-08-01T10:54:45;5.20;;;4.70;;
6983;SDS011;3532;51.118;7.210;2022-08-01T10:57:11;5.03;;;4.63;;
6983;SDS011;3532;51.118;7.210;2022-08-01T10:59:48;6.30;;;4.97;;
6983;SDS011;3532;51.118;7.210;2022-08-01T11:02:31;5.03;;;4.50;;
6983;SDS011;3532;51.118;7.210;2022-08-01T11:05:01;4.00;;;3.60;;
6983;SDS011;3532;51.118;7.210;2022-08-01T11:07:45;4.13;;;3.77;;
6983;SDS011;3532;51.118;7.210;2022-08-01T11:10:19;3.77;;;3.47;;
6983;SDS011;3532;51.118;7.210;2022-08-01T11:12:47;4.63;;;4.17;;
6983;SDS011;3532;51.118;7.210;2022-08-01T11:17:44;3.90;;;3.57;;
6983;SDS011;3532;51.118;7.210;2022-08-01T11:20:14;4.03;;;3.73;;
6983;SDS011;3532;51.118;7.210;2022-08-01T11:30:45;3.30;;;3.00;;
6983;SDS011;3532;51.118;7.210;2022-08-01T11:33:16;3.80;;;3.33;;
6983;SDS011;3532;51.118;7.210;2022-08-01T11:38:37;4.20;;;3.10;;
6983;SDS011;3532;51.118;7.210;2022-08-01T11:41:13;3.30;;;3.10;;
6983;SDS011;3532;51.118;7.210;2022-08-01T11:43:59;4.07;;;3.33;;
6983;SDS011;3532;51.118;7.210;2022-08-01T11:52:02;3.27;;;2.97;;
6983;SDS011;3532;51.118;7.210;2022-08-01T11:54:32;3.53;;;3.23;;
6983;SDS011;3532;51.118;7.210;2022-08-01T11:56:59;2.90;;;2.70;;
6983;SDS011;3532;51.118;7.210;2022-08-01T11:59:25;2.93;;;2.60;;
6983;SDS011;3532;51.118;7.210;2022-08-01T12:01:51;3.30;;;2.87;;
6983;SDS011;3532;51.118;7.210;2022-08-01T12:04:17;2.80;;;2.60;;
6983;SDS011;3532;51.118;7.210;2022-08-01T12:06:42;3.10;;;2.77;;
6983;SDS011;3532;51.118;7.210;2022-08-01T12:09:15;3.13;;;2.83;;
6983;SDS011;3532;51.118;7.210;2022-08-01T12:11:44;2.77;;;2.57;;
6983;SDS011;3532;51.118;7.210;2022-08-01T12:14:15;2.90;;;2.70;;
6983;SDS011;3532;51.118;7.210;2022-08-01T12:16:47;2.90;;;2.70;;
6983;SDS011;3532;51.118;7.210;2022-08-01T12:19:18;3.07;;;2.80;;
6983;SDS011;3532;51.118;7.210;2022-08-01T12:22:05;2.67;;;2.47;;
6983;SDS011;3532;51.118;7.210;2022-08-01T12:24:32;2.87;;;2.43;;
6983;SDS011;3532;51.118;7.210;2022-08-01T12:26:58;3.63;;;2.80;;
6983;SDS011;3532;51.118;7.210;2022-08-01T12:29:33;3.33;;;2.20;;
6983;SDS011;3532;51.118;7.210;2022-08-01T12:32:00;2.60;;;2.40;;
6983;SDS011;3532;51.118;7.210;2022-08-01T12:34:25;2.30;;;2.10;;
6983;SDS011;3532;51.118;7.210;2022-08-01T12:36:54;2.30;;;2.20;;
6983;SDS011;3532;51.118;7.210;2022-08-01T12:39:20;2.43;;;2.30;;
6983;SDS011;3532;51.118;7.210;2022-08-01T12:41:45;2.27;;;2.07;;
6983;SDS011;3532;51.118;7.210;2022-08-01T12:44:13;2.87;;;2.60;;
6983;SDS011;3532;51.118;7.210;2022-08-01T12:46:40;2.73;;;2.40;;
6983;SDS011;3532;51.118;7.210;2022-08-01T12:49:05;2.63;;;2.30;;
6983;SDS011;3532;51.118;7.210;2022-08-01T12:51:31;2.30;;;2.10;;
6983;SDS011;3532;51.118;7.210;2022-08-01T12:53:58;3.30;;;2.13;;
6983;SDS011;3532;51.118;7.210;2022-08-01T12:56:30;2.20;;;2.00;;
6983;SDS011;3532;51.118;7.210;2022-08-01T12:58:57;1.90;;;1.80;;
6983;SDS011;3532;51.118;7.210;2022-08-01T13:01:25;3.23;;;2.10;;
6983;SDS011;3532;51.118;7.210;2022-08-01T13:04:01;2.10;;;2.00;;
6983;SDS011;3532;51.118;7.210;2022-08-01T13:06:29;3.30;;;1.90;;
6983;SDS011;3532;51.118;7.210;2022-08-01T13:08:55;2.17;;;1.97;;
6983;SDS011;3532;51.118;7.210;2022-08-01T13:11:29;4.40;;;2.10;;
6983;SDS011;3532;51.118;7.210;2022-08-01T13:13:55;2.20;;;2.10;;
6983;SDS011;3532;51.118;7.210;2022-08-01T13:16:22;2.30;;;2.00;;
6983;SDS011;3532;51.118;7.210;2022-08-01T13:18:51;1.73;;;1.63;;
6983;SDS011;3532;51.118;7.210;2022-08-01T13:21:18;1.90;;;1.80;;
6983;SDS011;3532;51.118;7.210;2022-08-01T13:24:07;3.13;;;1.97;;
6983;SDS011;3532;51.118;7.210;2022-08-01T13:26:40;2.87;;;2.37;;
6983;SDS011;3532;51.118;7.210;2022-08-01T13:29:19;2.37;;;2.10;;
6983;SDS011;3532;51.118;7.210;2022-08-01T13:31:46;2.60;;;2.40;;
6983;SDS011;3532;51.118;7.210;2022-08-01T13:34:12;2.30;;;2.10;;
6983;SDS011;3532;51.118;7.210;2022-08-01T13:36:37;2.33;;;2.13;;
6983;SDS011;3532;51.118;7.210;2022-08-01T13:39:04;2.37;;;2.23;;
6983;SDS011;3532;51.118;7.210;2022-08-01T13:41:48;2.40;;;2.20;;
6983;SDS011;3532;51.118;7.210;2022-08-01T13:44:13;2.60;;;2.40;;
6983;SDS011;3532;51.118;7.210;2022-08-01T13:46:39;2.87;;;2.57;;
6983;SDS011;3532;51.118;7.210;2022-08-01T13:49:06;3.87;;;2.30;;
6983;SDS011;3532;51.118;7.210;2022-08-01T13:51:32;2.23;;;2.03;;
6983;SDS011;3532;51.118;7.210;2022-08-01T13:53:58;2.60;;;2.33;;
6983;SDS011;3532;51.118;7.210;2022-08-01T13:56:24;2.67;;;2.47;;
6983;SDS011;3532;51.118;7.210;2022-08-01T13:58:49;3.00;;;2.13;;
6983;SDS011;3532;51.118;7.210;2022-08-01T14:01:15;2.50;;;2.30;;
6983;SDS011;3532;51.118;7.210;2022-08-01T14:03:40;3.07;;;2.20;;
6983;SDS011;3532;51.118;7.210;2022-08-01T14:06:06;2.93;;;2.57;;
6983;SDS011;3532;51.118;7.210;2022-08-01T14:08:31;2.33;;;2.13;;
6983;SDS011;3532;51.118;7.210;2022-08-01T14:10:56;2.53;;;2.33;;
6983;SDS011;3532;51.118;7.210;2022-08-01T14:13:24;2.60;;;2.27;;
6983;SDS011;3532;51.118;7.210;2022-08-01T14:15:49;2.70;;;2.50;;
6983;SDS011;3532;51.118;7.210;2022-08-01T14:18:15;2.20;;;2.00;;
6983;SDS011;3532;51.118;7.210;2022-08-01T14:20:41;3.10;;;2.63;;
6983;SDS011;3532;51.118;7.210;2022-08-01T14:23:06;2.63;;;2.43;;
6983;SDS011;3532;51.118;7.210;2022-08-01T14:25:32;2.60;;;2.30;;
6983;SDS011;3532;51.118;7.210;2022-08-01T14:27:57;3.67;;;2.23;;
6983;SDS011;3532;51.118;7.210;2022-08-01T14:30:22;3.10;;;2.23;;
6983;SDS011;3532;51.118;7.210;2022-08-01T14:32:48;3.33;;;2.73;;
6983;SDS011;3532;51.118;7.210;2022-08-01T14:35:13;2.80;;;2.60;;
6983;SDS011;3532;51.118;7.210;2022-08-01T14:37:38;2.53;;;2.33;;
6983;SDS011;3532;51.118;7.210;2022-08-01T14:40:04;2.50;;;2.30;;
6983;SDS011;3532;51.118;7.210;2022-08-01T14:42:33;2.80;;;2.60;;
6983;SDS011;3532;51.118;7.210;2022-08-01T14:44:59;4.43;;;2.80;;
6983;SDS011;3532;51.118;7.210;2022-08-01T14:47:24;2.90;;;2.70;;
6983;SDS011;3532;51.118;7.210;2022-08-01T14:49:50;2.33;;;2.20;;
6983;SDS011;3532;51.118;7.210;2022-08-01T14:52:15;2.90;;;2.60;;
6983;SDS011;3532;51.118;7.210;2022-08-01T14:54:41;2.63;;;2.17;;
6983;SDS011;3532;51.118;7.210;2022-08-01T14:57:06;2.60;;;2.40;;
6983;SDS011;3532;51.118;7.210;2022-08-01T14:59:31;3.20;;;2.40;;
6983;SDS011;3532;51.118;7.210;2022-08-01T15:01:56;2.70;;;2.50;;
6983;SDS011;3532;51.118;7.210;2022-08-01T15:04:22;2.93;;;2.73;;
6983;SDS011;3532;51.118;7.210;2022-08-01T15:06:47;2.80;;;2.60;;
6983;SDS011;3532;51.118;7.210;2022-08-01T15:09:13;2.40;;;2.20;;
6983;SDS011;3532;51.118;7.210;2022-08-01T15:11:38;2.90;;;2.70;;
6983;SDS011;3532;51.118;7.210;2022-08-01T15:14:03;3.37;;;2.30;;
6983;SDS011;3532;51.118;7.210;2022-08-01T15:16:47;2.30;;;2.10;;
6983;SDS011;3532;51.118;7.210;2022-08-01T15:19:12;4.67;;;2.83;;
6983;SDS011;3532;51.118;7.210;2022-08-01T15:21:38;3.50;;;2.47;;
6983;SDS011;3532;51.118;7.210;2022-08-01T15:24:03;2.60;;;2.40;;
6983;SDS011;3532;51.118;7.210;2022-08-01T15:26:29;2.87;;;2.67;;
6983;SDS011;3532;51.118;7.210;2022-08-01T15:28:54;3.77;;;2.60;;
6983;SDS011;3532;51.118;7.210;2022-08-01T15:31:20;2.40;;;2.30;;
6983;SDS011;3532;51.118;7.210;2022-08-01T15:33:45;2.80;;;2.60;;
6983;SDS011;3532;51.118;7.210;2022-08-01T15:36:10;2.80;;;2.60;;
6983;SDS011;3532;51.118;7.210;2022-08-01T15:38:36;2.27;;;2.07;;
6983;SDS011;3532;51.118;7.210;2022-08-01T15:41:01;2.30;;;2.17;;
6983;SDS011;3532;51.118;7.210;2022-08-01T15:43:26;2.30;;;2.10;;